createdAt,value
2023-01-10T00:01:49.390Z,1.30
2023-01-10T00:04:17.607Z,1.60
2023-01-10T00:06:45.422Z,1.60
2023-01-10T00:09:13.506Z,1.40
2023-01-10T00:12:02.236Z,1.20
2023-01-10T00:14:33.428Z,1.53
2023-01-10T00:17:01.324Z,1.23
2023-01-10T00:19:29.137Z,1.50
2023-01-10T00:22:13.591Z,1.50
2023-01-10T00:24:42.285Z,1.67
2023-01-10T00:27:15.382Z,1.53
2023-01-10T00:29:44.571Z,1.30
2023-01-10T00:32:12.600Z,1.53
2023-01-10T00:34:40.462Z,1.20
2023-01-10T00:37:08.341Z,1.20
2023-01-10T00:39:36.287Z,1.30
2023-01-10T00:42:21.867Z,1.10
2023-01-10T00:44:53.445Z,1.13
2023-01-10T00:47:21.315Z,1.10
2023-01-10T00:49:49.220Z,1.00
2023-01-10T00:52:17.094Z,1.10
2023-01-10T00:54:45.031Z,1.20
2023-01-10T00:57:14.979Z,1.17
2023-01-10T00:59:42.865Z,1.10
2023-01-10T01:02:15.286Z,1.33
2023-01-10T01:04:43.088Z,1.10
2023-01-10T01:07:11.076Z,0.97
2023-01-10T01:09:59.271Z,1.00
2023-01-10T01:12:27.294Z,0.90
2023-01-10T01:14:55.130Z,1.00
2023-01-10T01:17:24.439Z,1.10
2023-01-10T01:19:52.322Z,1.10
2023-01-10T01:22:20.785Z,0.97
2023-01-10T01:24:48.537Z,1.10
2023-01-10T01:27:16.675Z,1.20
2023-01-10T01:29:44.581Z,1.00
2023-01-10T01:32:12.603Z,1.07
2023-01-10T01:34:41.951Z,1.00
2023-01-10T01:37:09.875Z,1.03
2023-01-10T01:39:37.662Z,1.23
2023-01-10T01:42:06.376Z,1.20
2023-01-10T01:44:37.513Z,1.20
2023-01-10T01:47:10.637Z,1.50
2023-01-10T01:49:45.767Z,1.20
2023-01-10T01:52:23.238Z,1.10
2023-01-10T01:54:51.164Z,1.20
2023-01-10T01:57:21.399Z,1.20
2023-01-10T01:59:52.281Z,1.20
2023-01-10T02:02:24.063Z,1.27
2023-01-10T02:04:58.021Z,1.07
2023-01-10T02:07:29.932Z,1.30
2023-01-10T02:10:02.399Z,1.00
2023-01-10T02:12:32.285Z,1.10
2023-01-10T02:15:00.846Z,1.17
2023-01-10T02:17:28.901Z,0.90
2023-01-10T02:20:01.369Z,1.27
2023-01-10T02:23:20.334Z,1.00
2023-01-10T02:26:22.323Z,1.30
2023-01-10T02:29:22.731Z,1.40
2023-01-10T02:32:14.639Z,1.20
2023-01-10T02:34:52.461Z,1.00
2023-01-10T02:37:26.910Z,1.17
2023-01-10T02:40:02.088Z,1.10
2023-01-10T02:42:40.471Z,1.07
2023-01-10T02:45:14.088Z,1.10
2023-01-10T02:47:43.664Z,1.27
2023-01-10T02:50:53.379Z,1.30
2023-01-10T02:53:26.458Z,0.90
2023-01-10T02:56:31.960Z,1.00
2023-01-10T02:59:15.883Z,1.00
2023-01-10T03:01:49.395Z,1.00
2023-01-10T03:04:29.421Z,1.10
2023-01-10T03:07:05.435Z,0.83
2023-01-10T03:09:36.346Z,1.03
2023-01-10T03:12:13.711Z,1.10
2023-01-10T03:14:43.184Z,1.10
2023-01-10T03:17:13.244Z,1.30
2023-01-10T03:19:47.148Z,0.80
2023-01-10T03:22:15.936Z,1.10
2023-01-10T03:24:47.453Z,1.20
2023-01-10T03:27:21.607Z,1.13
2023-01-10T03:29:55.528Z,1.10
2023-01-10T03:32:27.268Z,0.80
2023-01-10T03:34:57.453Z,1.10
2023-01-10T03:37:33.745Z,1.10
2023-01-10T03:40:09.316Z,0.97
2023-01-10T03:42:58.655Z,1.00
2023-01-10T03:45:33.977Z,1.20
2023-01-10T03:48:06.509Z,1.23
2023-01-10T03:50:38.370Z,1.30
2023-01-10T03:53:06.752Z,1.27
2023-01-10T03:55:35.714Z,1.20
2023-01-10T03:58:03.504Z,1.10
2023-01-10T04:00:31.829Z,1.00
2023-01-10T04:03:00.057Z,1.03
2023-01-10T04:05:27.990Z,1.10
2023-01-10T04:07:57.350Z,1.00
2023-01-10T04:10:27.118Z,1.07
2023-01-10T04:12:55.006Z,1.00
2023-01-10T04:15:23.170Z,1.10
2023-01-10T04:17:51.020Z,1.37
2023-01-10T04:20:19.293Z,1.43
2023-01-10T04:22:49.723Z,1.30
2023-01-10T04:25:19.078Z,1.23
2023-01-10T04:27:46.854Z,1.17
2023-01-10T04:30:14.739Z,1.10
2023-01-10T04:32:42.543Z,1.47
2023-01-10T04:35:11.113Z,1.07
2023-01-10T04:37:38.994Z,1.47
2023-01-10T04:40:08.118Z,1.33
2023-01-10T04:42:37.340Z,1.33
2023-01-10T04:45:06.039Z,1.30
2023-01-10T04:47:33.951Z,1.57
2023-01-10T04:50:01.838Z,1.70
2023-01-10T04:52:29.772Z,1.77
2023-01-10T04:54:57.668Z,1.30
2023-01-10T04:57:25.611Z,1.90
2023-01-10T04:59:54.828Z,1.77
2023-01-10T05:02:22.691Z,1.37
2023-01-10T05:04:50.536Z,1.60
2023-01-10T05:07:18.355Z,1.70
2023-01-10T05:09:46.136Z,1.40
2023-01-10T05:12:14.054Z,1.53
2023-01-10T05:14:41.917Z,1.70
2023-01-10T05:17:11.197Z,1.40
2023-01-10T05:19:38.981Z,1.73
2023-01-10T05:22:06.848Z,1.90
2023-01-10T05:24:34.589Z,1.87
2023-01-10T05:27:02.385Z,1.70
2023-01-10T05:29:30.522Z,1.57
2023-01-10T05:31:58.318Z,2.17
2023-01-10T05:34:27.692Z,2.20
2023-01-10T05:36:55.496Z,2.00
2023-01-10T05:39:23.313Z,2.40
2023-01-10T05:41:51.168Z,2.10
2023-01-10T05:44:19.066Z,2.20
2023-01-10T05:46:46.911Z,2.27
2023-01-10T05:49:14.716Z,2.57
2023-01-10T05:51:43.941Z,2.40
2023-01-10T05:54:11.658Z,2.50
2023-01-10T05:56:39.756Z,2.10
2023-01-10T05:59:17.029Z,2.10
2023-01-10T06:01:55.026Z,2.27
2023-01-10T06:04:23.001Z,2.90
2023-01-10T06:06:52.221Z,2.03
2023-01-10T06:09:20.118Z,2.30
2023-01-10T06:11:48.131Z,2.97
2023-01-10T06:14:19.147Z,2.67
2023-01-10T06:20:13.662Z,2.50
2023-01-10T06:22:43.408Z,2.53
2023-01-10T06:25:12.509Z,2.77
2023-01-10T06:27:41.895Z,2.57
2023-01-10T06:30:12.426Z,2.47
2023-01-10T06:32:40.945Z,2.70
2023-01-10T06:35:09.392Z,2.47
2023-01-10T06:37:37.393Z,2.70
2023-01-10T06:40:07.924Z,2.87
2023-01-10T06:42:35.640Z,2.60
2023-01-10T06:45:04.700Z,2.93
2023-01-10T06:47:32.477Z,2.63
2023-01-10T06:50:00.344Z,2.60
2023-01-10T06:52:28.292Z,2.90
2023-01-10T06:54:56.196Z,2.77
2023-01-10T06:57:25.407Z,2.67
2023-01-10T06:59:53.313Z,2.63
2023-01-10T07:02:21.482Z,2.90
2023-01-10T07:04:49.991Z,2.57
2023-01-10T07:07:17.844Z,2.30
2023-01-10T07:09:46.317Z,3.30
2023-01-10T07:12:14.183Z,2.90
2023-01-10T07:14:43.443Z,2.77
2023-01-10T07:17:11.216Z,2.70
2023-01-10T07:19:39.027Z,2.70
2023-01-10T07:22:06.895Z,2.50
2023-01-10T07:24:35.240Z,2.80
2023-01-10T07:27:03.105Z,2.33
2023-01-10T07:29:31.009Z,3.03
2023-01-10T07:32:00.326Z,2.70
2023-01-10T07:34:28.173Z,2.23
2023-01-10T07:36:56.062Z,2.43
2023-01-10T07:39:23.994Z,2.57
2023-01-10T07:41:53.032Z,2.50
2023-01-10T07:44:21.015Z,2.27
2023-01-10T07:46:48.957Z,2.60
2023-01-10T07:49:18.469Z,2.10
2023-01-10T07:51:46.284Z,2.13
2023-01-10T07:54:14.986Z,2.27
2023-01-10T07:56:43.077Z,2.20
2023-01-10T07:59:10.877Z,2.30
2023-01-10T08:01:38.865Z,2.00
2023-01-10T08:04:07.031Z,1.70
2023-01-10T08:06:36.186Z,2.10
2023-01-10T08:09:05.829Z,2.23
2023-01-10T08:11:33.722Z,2.23
2023-01-10T08:14:01.711Z,1.87
2023-01-10T08:16:29.673Z,1.90
2023-01-10T08:18:57.659Z,2.20
2023-01-10T08:21:25.619Z,2.07
2023-01-10T08:23:55.343Z,2.20
2023-01-10T08:26:23.221Z,1.87
2023-01-10T08:28:51.733Z,2.00
2023-01-10T08:31:20.189Z,1.50
2023-01-10T08:33:48.757Z,1.83
2023-01-10T08:36:17.734Z,2.20
2023-01-10T08:38:45.773Z,1.80
2023-01-10T08:41:16.384Z,1.90
2023-01-10T08:43:44.753Z,2.50
2023-01-10T08:46:12.821Z,2.87
2023-01-10T08:48:40.736Z,1.83
2023-01-10T08:51:09.665Z,2.00
2023-01-10T08:53:37.518Z,1.37
2023-01-10T08:56:05.809Z,2.23
2023-01-10T08:58:35.437Z,2.33
2023-01-10T09:01:05.406Z,2.40
2023-01-10T09:03:33.528Z,2.30
2023-01-10T09:06:02.011Z,2.23
2023-01-10T09:08:29.874Z,2.20
2023-01-10T09:11:00.279Z,2.50
2023-01-10T09:13:29.033Z,2.00
2023-01-10T09:15:58.920Z,2.17
2023-01-10T09:18:27.472Z,2.10
2023-01-10T09:20:55.541Z,1.83
2023-01-10T09:23:24.766Z,2.03
2023-01-10T09:25:55.783Z,2.20
2023-01-10T09:28:24.940Z,2.13
2023-01-10T09:30:52.937Z,2.10
2023-01-10T09:33:22.325Z,1.80
2023-01-10T09:35:50.226Z,2.50
2023-01-10T09:38:22.276Z,2.30
2023-01-10T09:41:15.132Z,2.53
2023-01-10T09:43:55.692Z,2.00
2023-01-10T09:46:32.523Z,1.63
2023-01-10T09:49:07.999Z,2.17
2023-01-10T09:51:39.318Z,3.00
2023-01-10T09:54:18.318Z,2.23
2023-01-10T09:56:47.931Z,1.97
2023-01-10T09:59:18.698Z,1.67
2023-01-10T10:01:48.893Z,2.40
2023-01-10T10:04:24.874Z,2.50
2023-01-10T10:06:53.713Z,2.00
2023-01-10T10:09:26.265Z,2.07
2023-01-10T10:12:16.210Z,1.70
2023-01-10T10:14:54.501Z,1.60
2023-01-10T10:17:38.388Z,1.73
2023-01-10T10:23:06.352Z,2.20
2023-01-10T10:25:57.134Z,1.80
2023-01-10T10:28:56.275Z,1.93
2023-01-10T10:31:39.617Z,2.07
2023-01-10T10:34:14.865Z,2.80
2023-01-10T10:36:50.580Z,2.03
2023-01-10T10:39:22.123Z,1.97
2023-01-10T10:42:15.510Z,1.90
2023-01-10T10:45:00.046Z,2.57
2023-01-10T10:47:32.088Z,1.50
2023-01-10T10:50:07.921Z,1.77
2023-01-10T10:52:38.153Z,2.33
2023-01-10T10:55:08.000Z,1.83
2023-01-10T10:57:43.430Z,1.43
2023-01-10T11:00:23.332Z,1.77
2023-01-10T11:02:55.521Z,1.10
2023-01-10T11:05:33.084Z,1.93
2023-01-10T11:08:07.406Z,2.07
2023-01-10T11:10:35.979Z,2.27
2023-01-10T11:13:17.571Z,1.90
2023-01-10T11:15:47.509Z,2.70
2023-01-10T11:18:17.043Z,2.30
2023-01-10T11:20:50.753Z,2.00
2023-01-10T11:23:44.463Z,2.17
2023-01-10T11:26:25.246Z,1.90
2023-01-10T11:28:54.961Z,2.27
2023-01-10T11:31:29.951Z,2.20
2023-01-10T11:33:58.648Z,2.00
2023-01-10T11:36:26.587Z,1.90
2023-01-10T11:39:02.838Z,2.27
2023-01-10T11:41:34.655Z,1.60
2023-01-10T11:44:18.460Z,1.93
2023-01-10T11:46:47.842Z,2.57
2023-01-10T11:49:21.930Z,1.87
2023-01-10T11:51:52.107Z,2.33
2023-01-10T11:54:25.747Z,2.00
2023-01-10T11:56:58.885Z,1.50
2023-01-10T11:59:28.635Z,1.77
2023-01-10T12:02:01.086Z,2.23
2023-01-10T12:04:32.487Z,2.30
2023-01-10T12:07:07.923Z,2.13
2023-01-10T12:09:42.181Z,1.80
2023-01-10T12:12:21.995Z,2.00
2023-01-10T12:14:50.891Z,2.00
2023-01-10T12:17:24.279Z,2.17
2023-01-10T12:19:53.565Z,2.30
2023-01-10T12:22:25.818Z,1.83
2023-01-10T12:24:56.567Z,2.20
2023-01-10T12:27:27.448Z,2.63
2023-01-10T12:30:04.165Z,2.40
2023-01-10T12:32:37.833Z,2.23
2023-01-10T12:35:11.433Z,2.40
2023-01-10T12:37:47.212Z,2.03
2023-01-10T12:40:23.353Z,2.80
2023-01-10T12:43:13.732Z,2.00
2023-01-10T12:45:46.395Z,2.00
2023-01-10T12:48:20.650Z,2.10
2023-01-10T12:50:53.956Z,1.97
2023-01-10T12:53:30.490Z,2.23
2023-01-10T12:56:04.165Z,2.10
2023-01-10T12:58:39.699Z,2.40
2023-01-10T13:01:10.515Z,2.17
2023-01-10T13:03:40.298Z,1.80
2023-01-10T13:06:08.620Z,2.60
2023-01-10T13:08:41.891Z,2.80
2023-01-10T13:11:16.612Z,2.77
2023-01-10T13:13:52.242Z,2.40
2023-01-10T13:16:31.884Z,2.73
2023-01-10T13:19:02.927Z,2.23
2023-01-10T13:21:32.136Z,2.67
2023-01-10T13:24:01.996Z,2.83
2023-01-10T13:26:49.488Z,2.40
2023-01-10T13:29:20.764Z,2.30
2023-01-10T13:31:51.521Z,3.00
2023-01-10T13:34:20.449Z,3.20
2023-01-10T13:36:56.470Z,2.90
2023-01-10T13:39:31.180Z,2.67
2023-01-10T13:42:42.691Z,2.97
2023-01-10T13:45:19.508Z,2.77
2023-01-10T13:48:05.440Z,2.97
2023-01-10T13:50:52.993Z,3.23
2023-01-10T13:53:52.082Z,2.47
2023-01-10T13:56:31.316Z,2.13
2023-01-10T13:59:19.232Z,2.13
2023-01-10T14:02:10.429Z,2.50
2023-01-10T14:04:41.171Z,2.70
2023-01-10T14:07:19.580Z,2.23
2023-01-10T14:09:50.652Z,2.37
2023-01-10T14:12:34.049Z,2.70
2023-01-10T14:15:08.180Z,2.27
2023-01-10T14:17:37.933Z,2.70
2023-01-10T14:20:16.994Z,1.70
2023-01-10T14:22:58.612Z,2.43
2023-01-10T14:25:28.536Z,2.10
2023-01-10T14:27:58.480Z,1.63
2023-01-10T14:30:32.685Z,2.17
2023-01-10T14:33:06.246Z,2.60
2023-01-10T14:35:38.829Z,2.50
2023-01-10T14:38:09.661Z,1.87
2023-01-10T14:40:43.253Z,1.93
2023-01-10T14:43:18.873Z,1.27
2023-01-10T14:45:53.692Z,2.17
2023-01-10T14:48:27.852Z,2.07
2023-01-10T14:51:17.084Z,2.10
2023-01-10T14:53:45.700Z,2.83
2023-01-10T14:56:22.773Z,1.90
2023-01-10T14:58:51.039Z,2.30
2023-01-10T15:01:24.472Z,2.10
2023-01-10T15:03:53.547Z,2.17
2023-01-10T15:06:21.749Z,1.70
2023-01-10T15:08:58.496Z,2.23
2023-01-10T15:11:29.020Z,2.30
2023-01-10T15:14:04.290Z,2.27
2023-01-10T15:16:34.933Z,2.00
2023-01-10T15:19:03.735Z,2.80
2023-01-10T15:21:32.025Z,2.23
2023-01-10T15:23:59.900Z,1.93
2023-01-10T15:26:30.633Z,2.03
2023-01-10T15:29:13.297Z,3.00
2023-01-10T15:31:44.384Z,1.73
2023-01-10T15:34:18.117Z,2.23
2023-01-10T15:36:50.785Z,2.10
2023-01-10T15:39:21.773Z,3.13
2023-01-10T15:41:50.305Z,2.47
2023-01-10T15:44:46.065Z,2.50
2023-01-10T15:47:38.700Z,2.73
2023-01-10T15:50:26.964Z,2.37
2023-01-10T15:52:57.600Z,1.80
2023-01-10T15:55:48.184Z,2.40
2023-01-10T15:58:19.933Z,2.60
2023-01-10T16:00:49.715Z,2.53
2023-01-10T16:03:25.565Z,1.70
2023-01-10T16:05:55.838Z,2.30
2023-01-10T16:08:27.021Z,3.13
2023-01-10T16:10:58.468Z,2.80
2023-01-10T16:13:28.747Z,2.67
2023-01-10T16:15:57.388Z,2.73
2023-01-10T16:18:27.947Z,2.17
2023-01-10T16:20:58.310Z,2.70
2023-01-10T16:23:31.348Z,2.67
2023-01-10T16:26:01.723Z,2.30
2023-01-10T16:28:35.818Z,2.80
2023-01-10T16:31:06.398Z,3.10
2023-01-10T16:33:37.524Z,2.23
2023-01-10T16:36:14.271Z,2.43
2023-01-10T16:38:42.735Z,2.30
2023-01-10T16:41:30.139Z,2.50
2023-01-10T16:43:57.977Z,2.30
2023-01-10T16:46:25.928Z,2.77
2023-01-10T16:48:55.146Z,2.23
2023-01-10T16:51:25.737Z,2.57
2023-01-10T16:53:53.924Z,2.47
2023-01-10T16:56:25.043Z,2.13
2023-01-10T16:58:54.597Z,1.80
2023-01-10T17:01:25.403Z,2.33
2023-01-10T17:03:55.178Z,2.40
2023-01-10T17:06:23.165Z,2.77
2023-01-10T17:08:51.158Z,2.40
2023-01-10T17:11:22.635Z,2.00
2023-01-10T17:13:50.703Z,2.53
2023-01-10T17:16:19.781Z,2.43
2023-01-10T17:18:48.256Z,2.00
2023-01-10T17:21:19.097Z,2.00
2023-01-10T17:23:47.623Z,1.97
2023-01-10T17:26:17.929Z,1.80
2023-01-10T17:28:46.678Z,2.00
2023-01-10T17:31:14.474Z,1.80
2023-01-10T17:33:42.300Z,2.23
2023-01-10T17:36:11.471Z,2.37
2023-01-10T17:38:42.924Z,2.00
2023-01-10T17:41:11.109Z,1.90
2023-01-10T17:43:39.923Z,1.73
2023-01-10T17:46:07.943Z,2.80
2023-01-10T17:48:37.011Z,2.00
2023-01-10T17:51:06.504Z,1.90
2023-01-10T17:53:34.416Z,1.83
2023-01-10T17:56:06.050Z,2.07
2023-01-10T17:58:34.145Z,1.83
2023-01-10T18:01:02.077Z,1.67
2023-01-10T18:03:30.059Z,2.20
2023-01-10T18:05:59.694Z,2.30
2023-01-10T18:08:28.049Z,2.20
2023-01-10T18:11:00.226Z,1.93
2023-01-10T18:13:31.356Z,1.37
2023-01-10T18:16:00.567Z,1.87
2023-01-10T18:18:29.116Z,1.97
2023-01-10T18:21:00.915Z,2.03
2023-01-10T18:23:31.489Z,1.83
2023-01-10T18:26:01.263Z,1.97
2023-01-10T18:28:41.050Z,1.53
2023-01-10T18:31:12.257Z,1.77
2023-01-10T18:33:40.451Z,1.73
2023-01-10T18:36:10.127Z,1.80
2023-01-10T18:38:38.534Z,1.57
2023-01-10T18:41:06.490Z,1.60
2023-01-10T18:43:35.806Z,1.73
2023-01-10T18:46:06.004Z,1.80
2023-01-10T18:48:34.107Z,2.20
2023-01-10T18:51:03.900Z,2.00
2023-01-10T18:53:32.394Z,1.80
2023-01-10T18:56:02.454Z,1.97
2023-01-10T18:58:33.072Z,1.73
2023-01-10T19:01:07.789Z,1.80
2023-01-10T19:03:35.761Z,2.10
2023-01-10T19:06:05.383Z,1.77
2023-01-10T19:08:33.731Z,1.40
2023-01-10T19:11:17.179Z,1.80
2023-01-10T19:13:46.346Z,1.77
2023-01-10T19:16:17.707Z,1.43
2023-01-10T19:18:50.023Z,1.57
2023-01-10T19:21:18.022Z,1.70
2023-01-10T19:23:47.236Z,2.07
2023-01-10T19:26:15.546Z,1.80
2023-01-10T19:28:44.314Z,1.63
2023-01-10T19:31:17.288Z,1.63
2023-01-10T19:33:46.242Z,2.00
2023-01-10T19:36:15.180Z,2.17
2023-01-10T19:38:43.407Z,1.47
2023-01-10T19:41:13.846Z,2.20
2023-01-10T19:43:42.140Z,1.90
2023-01-10T19:46:11.420Z,1.70
2023-01-10T19:48:40.828Z,2.27
2023-01-10T19:51:09.805Z,1.87
2023-01-10T19:53:39.165Z,2.20
2023-01-10T19:56:11.334Z,1.80
2023-01-10T19:58:45.445Z,1.53
2023-01-10T20:01:15.806Z,2.10
2023-01-10T20:03:47.425Z,1.90
2023-01-10T20:06:17.515Z,1.87
2023-01-10T20:08:46.433Z,1.87
2023-01-10T20:11:15.149Z,1.90
2023-01-10T20:13:45.256Z,1.97
2023-01-10T20:16:14.316Z,1.70
2023-01-10T20:18:47.809Z,2.17
2023-01-10T20:21:18.010Z,2.40
2023-01-10T20:23:48.216Z,1.70
2023-01-10T20:26:17.904Z,2.00
2023-01-10T20:28:47.891Z,1.93
2023-01-10T20:31:18.569Z,2.10
2023-01-10T20:33:47.990Z,2.30
2023-01-10T20:36:18.222Z,1.93
2023-01-10T20:38:46.319Z,2.33
2023-01-10T20:41:15.879Z,3.07
2023-01-10T20:43:44.388Z,1.93
2023-01-10T20:46:14.117Z,2.00
2023-01-10T20:48:42.683Z,2.20
2023-01-10T20:51:15.930Z,2.23
2023-01-10T20:53:43.977Z,2.03
2023-01-10T20:56:13.901Z,2.07
2023-01-10T20:58:42.144Z,2.50
2023-01-10T21:01:10.940Z,2.30
2023-01-10T21:03:39.634Z,1.83
2023-01-10T21:06:08.053Z,2.37
2023-01-10T21:08:37.546Z,1.90
2023-01-10T21:11:07.094Z,2.33
2023-01-10T21:13:35.876Z,2.50
2023-01-10T21:16:05.405Z,1.90
2023-01-10T21:18:35.673Z,1.77
2023-01-10T21:21:03.761Z,1.97
2023-01-10T21:23:31.651Z,1.90
2023-01-10T21:26:04.279Z,1.90
2023-01-10T21:28:34.607Z,1.87
2023-01-10T21:31:02.566Z,2.07
2023-01-10T21:33:30.349Z,1.80
2023-01-10T21:35:59.754Z,1.67
2023-01-10T21:38:29.111Z,1.37
2023-01-10T21:40:57.646Z,1.83
2023-01-10T21:43:26.892Z,2.10
2023-01-10T21:45:59.269Z,2.43
2023-01-10T21:48:27.124Z,1.80
2023-01-10T21:50:55.048Z,2.17
2023-01-10T21:53:23.506Z,1.80
2023-01-10T21:55:51.435Z,1.97
2023-01-10T21:58:19.614Z,2.17
2023-01-10T22:00:48.908Z,2.00
2023-01-10T22:03:16.796Z,2.67
2023-01-10T22:05:44.661Z,2.00
2023-01-10T22:08:12.659Z,1.80
2023-01-10T22:10:40.473Z,1.60
2023-01-10T22:13:08.366Z,2.10
2023-01-10T22:15:37.885Z,1.87
2023-01-10T22:18:07.233Z,1.80
2023-01-10T22:20:35.177Z,1.70
2023-01-10T22:23:03.149Z,1.80
2023-01-10T22:25:31.094Z,1.90
2023-01-10T22:27:58.873Z,1.77
2023-01-10T22:30:26.718Z,2.03
2023-01-10T22:32:56.985Z,1.60
2023-01-10T22:35:27.149Z,1.87
2023-01-10T22:37:56.522Z,1.90
2023-01-10T22:40:24.786Z,1.43
2023-01-10T22:42:53.628Z,1.73
2023-01-10T22:45:21.768Z,1.93
2023-01-10T22:48:24.418Z,1.67
2023-01-10T22:50:54.443Z,1.50
2023-01-10T22:53:22.386Z,1.80
2023-01-10T22:55:50.284Z,1.83
2023-01-10T22:58:18.105Z,2.27
2023-01-10T23:00:48.995Z,2.17
2023-01-10T23:03:17.065Z,1.90
2023-01-10T23:05:45.290Z,2.07
2023-01-10T23:08:14.765Z,1.77
2023-01-10T23:10:43.573Z,1.80
2023-01-10T23:13:11.449Z,1.97
2023-01-10T23:15:39.282Z,1.70
2023-01-10T23:18:07.486Z,2.23
2023-01-10T23:20:35.660Z,2.00
2023-01-10T23:23:03.622Z,2.03
2023-01-10T23:25:32.941Z,2.03
2023-01-10T23:28:00.823Z,2.27
2023-01-10T23:30:29.500Z,1.50
2023-01-10T23:32:57.401Z,1.70
2023-01-10T23:35:25.288Z,1.60
2023-01-10T23:37:54.107Z,1.70
2023-01-10T23:40:22.153Z,1.67
2023-01-10T23:42:51.348Z,1.70
2023-01-10T23:45:19.193Z,1.80
2023-01-10T23:47:47.185Z,1.60
2023-01-10T23:50:17.008Z,1.60
2023-01-10T23:52:44.824Z,1.30
2023-01-10T23:55:14.128Z,1.60
2023-01-10T23:58:02.075Z,2.13
